createdAt,value
2023-11-21T00:01:38.386Z,100.00
2023-11-21T00:04:08.910Z,100.00
2023-11-21T00:06:36.979Z,100.00
2023-11-21T00:09:04.458Z,100.00
2023-11-21T00:11:33.469Z,100.00
2023-11-21T00:14:04.411Z,100.00
2023-11-21T00:16:31.637Z,100.00
2023-11-21T00:19:03.694Z,100.00
2023-11-21T00:21:30.878Z,100.00
2023-11-21T00:24:00.763Z,100.00
2023-11-21T00:26:27.920Z,100.00
2023-11-21T00:29:02.327Z,100.00
2023-11-21T00:31:29.521Z,100.00
2023-11-21T00:33:56.758Z,100.00
2023-11-21T00:36:27.058Z,100.00
2023-11-21T00:38:59.228Z,100.00
2023-11-21T00:41:30.285Z,100.00
2023-11-21T00:44:00.711Z,100.00
2023-11-21T00:46:30.607Z,100.00
2023-11-21T00:49:00.537Z,100.00
2023-11-21T00:51:27.782Z,100.00
2023-11-21T00:53:54.929Z,100.00
2023-11-21T00:56:22.816Z,100.00
2023-11-21T00:58:53.355Z,100.00
2023-11-21T01:01:24.203Z,100.00
2023-11-21T01:03:51.918Z,100.00
2023-11-21T01:06:19.476Z,100.00
2023-11-21T01:08:46.671Z,100.00
2023-11-21T01:11:16.203Z,100.00
2023-11-21T01:13:43.755Z,100.00
2023-11-21T01:16:13.684Z,100.00
2023-11-21T01:18:43.045Z,100.00
2023-11-21T01:21:13.141Z,100.00
2023-11-21T01:23:40.160Z,100.00
2023-11-21T01:26:08.567Z,100.00
2023-11-21T01:28:37.943Z,100.00
2023-11-21T01:31:05.462Z,100.00
2023-11-21T01:33:34.960Z,100.00
2023-11-21T01:36:02.037Z,100.00
2023-11-21T01:38:31.885Z,100.00
2023-11-21T01:41:01.796Z,100.00
2023-11-21T01:43:32.555Z,100.00
2023-11-21T01:46:00.044Z,100.00
2023-11-21T01:48:30.559Z,100.00
2023-11-21T01:50:57.799Z,100.00
2023-11-21T01:53:31.373Z,100.00
2023-11-21T01:56:01.010Z,100.00
2023-11-21T01:58:33.565Z,100.00
2023-11-21T02:01:01.030Z,100.00
2023-11-21T02:03:28.346Z,100.00
2023-11-21T02:05:55.571Z,100.00
2023-11-21T02:08:22.613Z,100.00
2023-11-21T02:10:52.123Z,100.00
2023-11-21T02:13:21.799Z,100.00
2023-11-21T02:15:51.011Z,100.00
2023-11-21T02:18:20.814Z,100.00
2023-11-21T02:20:48.342Z,100.00
2023-11-21T02:23:19.324Z,100.00
2023-11-21T02:25:49.851Z,100.00
2023-11-21T02:28:26.687Z,100.00
2023-11-21T02:30:57.990Z,100.00
2023-11-21T02:33:25.188Z,100.00
2023-11-21T02:35:55.891Z,100.00
2023-11-21T02:38:23.199Z,100.00
2023-11-21T02:40:53.203Z,100.00
2023-11-21T02:43:20.325Z,100.00
2023-11-21T02:45:47.490Z,100.00
2023-11-21T02:48:16.957Z,100.00
2023-11-21T02:50:44.430Z,100.00
2023-11-21T02:53:11.866Z,100.00
2023-11-21T02:55:41.766Z,100.00
2023-11-21T02:58:09.537Z,100.00
2023-11-21T03:00:38.816Z,100.00
2023-11-21T03:03:06.000Z,100.00
2023-11-21T03:05:36.744Z,100.00
2023-11-21T03:08:03.948Z,100.00
2023-11-21T03:10:30.863Z,100.00
2023-11-21T03:12:59.031Z,100.00
2023-11-21T03:15:28.956Z,100.00
2023-11-21T03:17:56.204Z,100.00
2023-11-21T03:20:26.686Z,100.00
2023-11-21T03:22:55.465Z,100.00
2023-11-21T03:25:25.502Z,100.00
2023-11-21T03:27:55.142Z,100.00
2023-11-21T03:30:22.372Z,100.00
2023-11-21T03:32:49.662Z,100.00
2023-11-21T03:35:17.095Z,100.00
2023-11-21T03:37:45.143Z,100.00
2023-11-21T03:40:14.026Z,100.00
2023-11-21T03:42:41.638Z,100.00
2023-11-21T03:45:13.923Z,100.00
2023-11-21T03:47:45.714Z,100.00
2023-11-21T03:50:15.626Z,100.00
2023-11-21T03:52:45.606Z,100.00
2023-11-21T03:55:16.132Z,100.00
2023-11-21T03:57:45.885Z,100.00
2023-11-21T04:00:14.168Z,100.00
2023-11-21T04:02:41.948Z,100.00
2023-11-21T04:05:10.497Z,100.00
2023-11-21T04:07:39.676Z,100.00
2023-11-21T04:10:10.824Z,100.00
2023-11-21T04:12:40.587Z,100.00
2023-11-21T04:15:10.549Z,100.00
2023-11-21T04:17:37.992Z,100.00
2023-11-21T04:20:12.114Z,100.00
2023-11-21T04:22:46.056Z,100.00
2023-11-21T04:25:17.482Z,100.00
2023-11-21T04:27:46.109Z,100.00
2023-11-21T04:30:15.175Z,100.00
2023-11-21T04:32:45.542Z,100.00
2023-11-21T04:35:13.110Z,100.00
2023-11-21T04:37:42.516Z,100.00
2023-11-21T04:40:10.768Z,100.00
2023-11-21T04:42:38.117Z,100.00
2023-11-21T04:45:10.267Z,100.00
2023-11-21T04:47:38.373Z,100.00
2023-11-21T04:50:07.256Z,100.00
2023-11-21T04:52:34.516Z,100.00
2023-11-21T04:55:04.231Z,100.00
2023-11-21T04:57:31.324Z,100.00
2023-11-21T04:59:58.590Z,100.00
2023-11-21T05:02:34.152Z,99.73
2023-11-21T05:05:07.545Z,99.68
2023-11-21T05:07:38.348Z,99.73
2023-11-21T05:10:13.723Z,99.80
2023-11-21T05:12:44.149Z,99.60
2023-11-21T05:15:15.829Z,99.92
2023-11-21T05:17:44.279Z,99.54
2023-11-21T05:20:19.254Z,100.00
2023-11-21T05:22:46.814Z,100.00
2023-11-21T05:25:14.197Z,100.00
2023-11-21T05:27:41.349Z,100.00
2023-11-21T05:30:14.021Z,100.00
2023-11-21T05:32:45.289Z,99.99
2023-11-21T05:35:17.275Z,99.33
2023-11-21T05:37:48.569Z,99.78
2023-11-21T05:40:16.121Z,99.92
2023-11-21T05:42:43.261Z,100.00
2023-11-21T05:45:14.105Z,99.00
2023-11-21T05:47:48.704Z,99.06
2023-11-21T05:50:19.806Z,98.16
2023-11-21T05:52:48.606Z,97.50
2023-11-21T05:55:16.696Z,98.09
2023-11-21T05:57:45.193Z,98.25
2023-11-21T06:00:26.827Z,98.06
2023-11-21T06:02:55.978Z,97.66
2023-11-21T06:05:26.019Z,97.95
2023-11-21T06:07:55.924Z,98.50
2023-11-21T06:10:26.484Z,97.57
2023-11-21T06:12:54.644Z,97.43
2023-11-21T06:15:25.022Z,98.33
2023-11-21T06:17:56.178Z,99.36
2023-11-21T06:20:24.212Z,98.97
2023-11-21T06:22:52.928Z,99.88
2023-11-21T06:25:20.414Z,99.03
2023-11-21T06:27:49.001Z,99.57
2023-11-21T06:30:17.604Z,99.26
2023-11-21T06:32:51.556Z,99.20
2023-11-21T06:35:18.816Z,98.85
2023-11-21T06:37:50.773Z,99.49
2023-11-21T06:40:21.865Z,99.32
2023-11-21T06:42:49.699Z,99.46
2023-11-21T06:45:18.060Z,98.97
2023-11-21T06:47:45.937Z,100.00
2023-11-21T06:50:18.368Z,98.81
2023-11-21T06:52:48.298Z,98.63
2023-11-21T06:55:16.057Z,98.49
2023-11-21T06:57:46.096Z,98.86
2023-11-21T07:00:14.894Z,98.94
2023-11-21T07:02:42.246Z,99.15
2023-11-21T07:05:15.588Z,98.83
2023-11-21T07:07:43.025Z,98.80
2023-11-21T07:10:10.457Z,99.32
2023-11-21T07:12:41.454Z,98.92
2023-11-21T07:15:12.592Z,98.69
2023-11-21T07:17:42.624Z,98.76
2023-11-21T07:20:12.624Z,98.64
2023-11-21T07:22:41.840Z,97.30
2023-11-21T07:25:10.724Z,97.70
2023-11-21T07:27:40.323Z,97.85
2023-11-21T07:30:11.369Z,98.67
2023-11-21T07:32:41.050Z,98.20
2023-11-21T07:35:09.404Z,97.56
2023-11-21T07:37:38.920Z,96.60
2023-11-21T07:40:10.037Z,97.43
2023-11-21T07:42:40.006Z,97.03
2023-11-21T07:45:08.380Z,97.23
2023-11-21T07:47:35.818Z,96.66
2023-11-21T07:50:08.967Z,97.41
2023-11-21T07:52:36.387Z,96.91
2023-11-21T07:55:04.709Z,97.41
2023-11-21T07:57:38.939Z,97.91
2023-11-21T08:00:10.829Z,97.68
2023-11-21T08:02:37.914Z,97.15
2023-11-21T08:05:05.396Z,97.78
2023-11-21T08:07:34.744Z,97.77
2023-11-21T08:10:01.923Z,98.42
2023-11-21T08:12:29.079Z,98.65
2023-11-21T08:14:56.227Z,99.24
2023-11-21T08:17:24.639Z,97.71
2023-11-21T08:19:52.743Z,97.28
2023-11-21T08:22:19.987Z,97.65
2023-11-21T08:24:47.785Z,97.06
2023-11-21T08:27:17.016Z,96.43
2023-11-21T08:29:45.314Z,96.84
2023-11-21T08:32:12.398Z,96.53
2023-11-21T08:34:41.504Z,96.51
2023-11-21T08:37:08.522Z,96.77
2023-11-21T08:39:35.614Z,97.07
2023-11-21T08:42:03.752Z,97.04
2023-11-21T08:44:33.107Z,96.69
2023-11-21T08:47:07.389Z,95.96
2023-11-21T08:49:35.641Z,95.88
2023-11-21T08:52:06.298Z,95.46
2023-11-21T08:54:36.369Z,95.04
2023-11-21T08:57:06.292Z,95.08
2023-11-21T08:59:34.313Z,94.92
2023-11-21T09:02:01.505Z,94.83
2023-11-21T09:04:33.089Z,93.39
2023-11-21T09:07:01.337Z,93.87
2023-11-21T09:09:31.947Z,95.21
2023-11-21T09:12:01.780Z,94.23
2023-11-21T09:14:29.598Z,93.33
2023-11-21T09:16:57.809Z,93.07
2023-11-21T09:19:26.089Z,92.53
2023-11-21T09:21:53.323Z,93.12
2023-11-21T09:24:20.344Z,91.95
2023-11-21T09:26:47.503Z,90.95
2023-11-21T09:29:15.125Z,90.64
2023-11-21T09:31:43.530Z,89.69
2023-11-21T09:34:12.122Z,88.61
2023-11-21T09:36:42.159Z,89.39
2023-11-21T09:39:11.614Z,88.21
2023-11-21T09:42:24.132Z,88.70
2023-11-21T09:45:27.556Z,89.45
2023-11-21T09:47:59.371Z,87.10
2023-11-21T09:50:27.865Z,88.55
2023-11-21T09:53:22.828Z,87.31
2023-11-21T09:55:54.150Z,85.97
2023-11-21T09:58:24.554Z,84.56
2023-11-21T10:00:57.908Z,84.60
2023-11-21T10:03:25.600Z,84.68
2023-11-21T10:05:54.721Z,82.29
2023-11-21T10:08:25.170Z,83.00
2023-11-21T10:10:57.898Z,82.82
2023-11-21T10:13:25.693Z,82.79
2023-11-21T10:15:53.911Z,81.40
2023-11-21T10:18:26.081Z,81.83
2023-11-21T10:20:56.351Z,82.97
2023-11-21T10:23:25.092Z,84.27
2023-11-21T10:25:54.193Z,83.48
2023-11-21T10:28:23.983Z,83.71
2023-11-21T10:30:53.623Z,83.49
2023-11-21T10:33:31.257Z,84.15
2023-11-21T10:35:58.706Z,83.35
2023-11-21T10:38:29.784Z,82.53
2023-11-21T10:40:57.057Z,83.45
2023-11-21T10:43:28.277Z,83.50
2023-11-21T10:46:02.332Z,84.88
2023-11-21T10:48:29.474Z,82.88
2023-11-21T10:50:57.793Z,82.20
2023-11-21T10:53:25.198Z,81.79
2023-11-21T10:56:03.167Z,79.88
2023-11-21T10:58:33.717Z,82.04
2023-11-21T11:01:05.786Z,80.99
2023-11-21T11:03:34.705Z,81.02
2023-11-21T11:06:02.376Z,80.38
2023-11-21T11:08:29.602Z,81.95
2023-11-21T11:10:57.669Z,82.29
2023-11-21T11:13:28.190Z,80.77
2023-11-21T11:16:03.661Z,82.28
2023-11-21T11:18:31.340Z,82.14
2023-11-21T11:21:38.705Z,82.09
2023-11-21T11:24:37.268Z,80.97
2023-11-21T11:27:35.526Z,80.62
2023-11-21T11:30:08.794Z,79.61
2023-11-21T11:32:59.295Z,78.33
2023-11-21T11:35:44.117Z,78.29
2023-11-21T11:38:12.096Z,77.46
2023-11-21T11:40:46.338Z,76.61
2023-11-21T11:43:16.576Z,78.05
2023-11-21T11:45:45.528Z,76.57
2023-11-21T11:48:17.846Z,77.23
2023-11-21T11:51:12.556Z,77.87
2023-11-21T11:53:47.779Z,78.88
2023-11-21T11:56:33.026Z,79.35
2023-11-21T11:59:10.358Z,78.36
2023-11-21T12:01:37.729Z,79.76
2023-11-21T12:04:24.899Z,80.04
2023-11-21T12:06:56.209Z,79.22
2023-11-21T12:09:27.912Z,80.35
2023-11-21T12:11:57.731Z,78.68
2023-11-21T12:14:24.895Z,79.28
2023-11-21T12:16:53.056Z,78.82
2023-11-21T12:19:22.021Z,79.33
2023-11-21T12:21:51.745Z,80.01
2023-11-21T12:24:20.735Z,79.52
2023-11-21T12:26:47.821Z,80.46
2023-11-21T12:29:17.846Z,81.14
2023-11-21T12:31:51.082Z,80.02
2023-11-21T12:34:20.792Z,80.39
2023-11-21T12:36:50.509Z,80.36
2023-11-21T12:39:18.534Z,81.11
2023-11-21T12:41:46.814Z,80.18
2023-11-21T12:44:16.529Z,80.92
2023-11-21T12:46:46.308Z,80.17
2023-11-21T12:49:19.119Z,79.84
2023-11-21T12:51:47.774Z,81.25
2023-11-21T12:54:17.148Z,79.66
2023-11-21T12:56:50.065Z,81.00
2023-11-21T12:59:19.216Z,80.18
2023-11-21T13:01:52.423Z,80.01
2023-11-21T13:04:19.986Z,79.50
2023-11-21T13:06:49.962Z,79.48
2023-11-21T13:09:22.976Z,80.82
2023-11-21T13:12:04.703Z,80.84
2023-11-21T13:14:33.164Z,79.56
2023-11-21T13:17:00.405Z,80.73
2023-11-21T13:19:30.795Z,80.59
2023-11-21T13:21:59.934Z,80.35
2023-11-21T13:24:29.366Z,80.89
2023-11-21T13:26:59.214Z,81.38
2023-11-21T13:29:28.594Z,82.66
2023-11-21T13:31:56.606Z,81.83
2023-11-21T13:34:29.319Z,81.57
2023-11-21T13:37:04.323Z,82.16
2023-11-21T13:39:33.761Z,81.75
2023-11-21T13:42:04.832Z,81.24
2023-11-21T13:44:38.890Z,81.16
2023-11-21T13:47:07.495Z,81.99
2023-11-21T13:49:41.881Z,81.93
2023-11-21T13:52:09.123Z,82.08
2023-11-21T13:54:36.202Z,81.88
2023-11-21T13:57:04.432Z,81.89
2023-11-21T13:59:33.159Z,82.21
2023-11-21T14:02:17.825Z,82.64
2023-11-21T14:04:54.371Z,81.60
2023-11-21T14:07:34.254Z,82.13
2023-11-21T14:10:01.802Z,81.75
2023-11-21T14:12:37.574Z,82.53
2023-11-21T14:15:09.343Z,82.47
2023-11-21T14:17:40.924Z,82.90
2023-11-21T14:20:15.808Z,82.57
2023-11-21T14:22:43.550Z,82.54
2023-11-21T14:25:13.923Z,83.31
2023-11-21T14:27:41.193Z,83.09
2023-11-21T14:30:09.455Z,83.03
2023-11-21T14:32:39.468Z,83.22
2023-11-21T14:35:09.287Z,84.22
2023-11-21T14:37:36.854Z,83.18
2023-11-21T14:40:09.179Z,83.73
2023-11-21T14:42:40.102Z,81.88
2023-11-21T14:45:13.359Z,82.84
2023-11-21T14:47:48.178Z,84.78
2023-11-21T14:50:44.599Z,84.23
2023-11-21T14:53:16.798Z,83.46
2023-11-21T14:55:57.977Z,82.81
2023-11-21T14:58:28.497Z,83.52
2023-11-21T15:01:01.534Z,83.06
2023-11-21T15:03:34.217Z,83.99
2023-11-21T15:06:22.231Z,84.07
2023-11-21T15:09:09.201Z,84.03
2023-11-21T15:11:38.828Z,84.05
2023-11-21T15:14:09.477Z,84.76
2023-11-21T15:16:43.127Z,84.98
2023-11-21T15:19:19.339Z,84.99
2023-11-21T15:21:49.619Z,85.21
2023-11-21T15:24:19.188Z,85.32
2023-11-21T15:26:46.639Z,84.19
2023-11-21T15:29:15.169Z,84.29
2023-11-21T15:31:47.083Z,83.36
2023-11-21T15:34:16.121Z,83.13
2023-11-21T15:36:45.858Z,83.74
2023-11-21T15:39:13.064Z,82.97
2023-11-21T15:41:43.840Z,82.22
2023-11-21T15:44:12.614Z,82.85
2023-11-21T15:46:43.819Z,83.27
2023-11-21T15:49:17.845Z,84.26
2023-11-21T15:51:54.082Z,84.82
2023-11-21T15:54:23.113Z,85.31
2023-11-21T15:56:50.560Z,86.07
2023-11-21T15:59:20.783Z,86.28
2023-11-21T16:01:50.129Z,85.82
2023-11-21T16:04:18.568Z,86.50
2023-11-21T16:06:48.068Z,85.52
2023-11-21T16:09:32.405Z,86.47
2023-11-21T16:12:05.011Z,86.46
2023-11-21T16:14:40.227Z,87.86
2023-11-21T16:17:10.468Z,87.28
2023-11-21T16:19:40.159Z,87.53
2023-11-21T16:22:07.970Z,87.60
2023-11-21T16:24:35.353Z,87.30
2023-11-21T16:27:03.527Z,87.48
2023-11-21T16:29:34.704Z,87.70
2023-11-21T16:32:02.667Z,87.01
2023-11-21T16:34:30.541Z,86.17
2023-11-21T16:36:57.588Z,85.83
2023-11-21T16:39:24.843Z,86.16
2023-11-21T16:41:52.813Z,85.65
2023-11-21T16:44:21.997Z,85.28
2023-11-21T16:46:55.251Z,85.67
2023-11-21T16:49:25.037Z,85.69
2023-11-21T16:51:52.438Z,84.92
2023-11-21T16:54:22.247Z,84.98
2023-11-21T16:56:51.763Z,86.07
2023-11-21T16:59:19.724Z,86.58
2023-11-21T17:01:49.366Z,87.07
2023-11-21T17:04:16.750Z,87.47
2023-11-21T17:06:45.178Z,88.36
2023-11-21T17:09:15.542Z,88.00
2023-11-21T17:11:44.035Z,87.39
2023-11-21T17:14:14.748Z,87.60
2023-11-21T17:16:43.173Z,88.64
2023-11-21T17:19:10.321Z,88.07
2023-11-21T17:21:40.029Z,88.96
2023-11-21T17:24:10.179Z,88.08
2023-11-21T17:26:37.276Z,87.16
2023-11-21T17:29:05.497Z,87.66
2023-11-21T17:31:33.122Z,87.65
2023-11-21T17:34:00.273Z,88.41
2023-11-21T17:36:27.403Z,89.15
2023-11-21T17:38:55.220Z,88.96
2023-11-21T17:41:23.741Z,88.71
2023-11-21T17:43:52.426Z,88.70
2023-11-21T17:46:24.471Z,88.24
2023-11-21T17:48:55.524Z,87.65
2023-11-21T17:51:25.376Z,87.61
2023-11-21T17:54:01.861Z,85.89
2023-11-21T17:56:29.715Z,86.46
2023-11-21T17:58:57.929Z,87.95
2023-11-21T18:01:31.762Z,87.16
2023-11-21T18:04:01.763Z,86.79
2023-11-21T18:06:29.736Z,85.46
2023-11-21T18:09:00.227Z,85.86
2023-11-21T18:11:29.640Z,86.90
2023-11-21T18:13:56.947Z,86.64
2023-11-21T18:16:28.402Z,86.34
2023-11-21T18:18:55.648Z,86.67
2023-11-21T18:21:22.713Z,85.55
2023-11-21T18:23:52.557Z,85.96
2023-11-21T18:26:21.947Z,86.46
2023-11-21T18:28:49.176Z,85.29
2023-11-21T18:31:16.745Z,85.08
2023-11-21T18:33:46.306Z,85.70
2023-11-21T18:36:16.689Z,85.91
2023-11-21T18:38:43.932Z,86.20
2023-11-21T18:41:11.822Z,86.30
2023-11-21T18:43:44.870Z,85.11
2023-11-21T18:46:14.633Z,85.59
2023-11-21T18:48:43.631Z,85.87
2023-11-21T18:51:10.716Z,85.44
2023-11-21T18:53:41.076Z,85.54
2023-11-21T18:56:11.022Z,84.68
2023-11-21T18:58:38.249Z,90.55
2023-11-21T19:01:07.965Z,85.68
2023-11-21T19:03:38.059Z,83.23
2023-11-21T19:06:05.732Z,83.86
2023-11-21T19:08:36.171Z,84.72
2023-11-21T19:11:05.575Z,83.19
2023-11-21T19:13:32.805Z,83.46
2023-11-21T19:16:02.688Z,83.11
2023-11-21T19:18:31.600Z,84.33
2023-11-21T19:21:01.312Z,84.90
2023-11-21T19:23:29.167Z,83.86
2023-11-21T19:26:01.973Z,84.63
2023-11-21T19:28:29.615Z,85.03
2023-11-21T19:31:03.674Z,85.16
2023-11-21T19:33:36.036Z,82.87
2023-11-21T19:36:12.543Z,82.28
2023-11-21T19:38:47.373Z,81.75
2023-11-21T19:41:26.421Z,81.75
2023-11-21T19:44:00.062Z,83.25
2023-11-21T19:46:29.410Z,82.40
2023-11-21T19:49:05.542Z,81.26
2023-11-21T19:51:37.491Z,81.74
2023-11-21T19:54:14.415Z,82.27
2023-11-21T19:56:46.788Z,81.84
2023-11-21T19:59:15.997Z,81.42
2023-11-21T20:01:55.420Z,81.89
2023-11-21T20:04:24.948Z,81.23
2023-11-21T20:07:02.670Z,81.49
2023-11-21T20:09:36.181Z,80.93
2023-11-21T20:12:08.378Z,81.49
2023-11-21T20:14:38.498Z,82.43
2023-11-21T20:17:08.785Z,81.83
2023-11-21T20:19:37.548Z,82.55
2023-11-21T20:22:06.962Z,83.32
2023-11-21T20:24:36.813Z,83.25
2023-11-21T20:27:07.367Z,83.03
2023-11-21T20:29:35.542Z,83.46
2023-11-21T20:32:03.149Z,83.55
2023-11-21T20:34:30.024Z,83.49
2023-11-21T20:36:57.220Z,83.75
2023-11-21T20:39:24.289Z,83.04
2023-11-21T20:41:55.777Z,84.06
2023-11-21T20:44:26.813Z,83.73
2023-11-21T20:47:03.495Z,83.46
2023-11-21T20:49:41.728Z,83.80
2023-11-21T20:52:15.227Z,83.50
2023-11-21T20:54:45.801Z,83.83
2023-11-21T20:57:13.647Z,83.86
2023-11-21T20:59:41.092Z,84.67
2023-11-21T21:02:08.184Z,84.08
2023-11-21T21:04:35.511Z,84.06
2023-11-21T21:07:02.692Z,84.65
2023-11-21T21:09:33.718Z,84.70
2023-11-21T21:12:03.632Z,84.54
2023-11-21T21:14:33.666Z,84.73
2023-11-21T21:17:04.341Z,84.06
2023-11-21T21:19:34.461Z,85.61
2023-11-21T21:22:02.187Z,85.38
2023-11-21T21:24:29.412Z,85.00
2023-11-21T21:27:01.599Z,84.95
2023-11-21T21:29:33.588Z,86.00
2023-11-21T21:32:00.801Z,85.87
2023-11-21T21:34:27.977Z,85.62
2023-11-21T21:36:57.831Z,86.03
2023-11-21T21:39:24.880Z,86.05
2023-11-21T21:41:52.289Z,86.41
2023-11-21T21:44:19.423Z,85.94
2023-11-21T21:46:47.443Z,86.33
2023-11-21T21:49:16.490Z,86.47
2023-11-21T21:51:43.751Z,86.47
2023-11-21T21:54:13.102Z,85.79
2023-11-21T21:56:40.231Z,86.20
2023-11-21T21:59:09.533Z,86.51
2023-11-21T22:01:44.875Z,87.14
2023-11-21T22:04:15.050Z,87.48
2023-11-21T22:06:46.949Z,86.88
2023-11-21T22:09:14.259Z,86.70
2023-11-21T22:11:41.831Z,87.11
2023-11-21T22:14:12.839Z,87.73
2023-11-21T22:16:39.960Z,86.50
2023-11-21T22:19:07.361Z,86.76
2023-11-21T22:21:34.492Z,86.92
2023-11-21T22:24:01.673Z,87.69
2023-11-21T22:26:31.008Z,88.47
2023-11-21T22:28:58.668Z,87.88
2023-11-21T22:31:25.826Z,88.75
2023-11-21T22:33:53.017Z,87.77
2023-11-21T22:36:21.866Z,88.75
2023-11-21T22:38:49.236Z,87.86
2023-11-21T22:41:28.136Z,89.32
2023-11-21T22:43:55.837Z,88.70
2023-11-21T22:46:23.930Z,88.99
2023-11-21T22:48:54.212Z,89.03
2023-11-21T22:51:23.991Z,89.04
2023-11-21T22:53:54.625Z,88.22
2023-11-21T22:56:23.395Z,88.39
2023-11-21T22:58:51.040Z,89.39
2023-11-21T23:01:20.945Z,90.40
2023-11-21T23:03:48.628Z,89.40
2023-11-21T23:06:22.848Z,88.82
2023-11-21T23:08:52.211Z,89.68
2023-11-21T23:11:19.164Z,89.82
2023-11-21T23:13:46.551Z,89.53
2023-11-21T23:16:18.214Z,89.52
2023-11-21T23:18:52.042Z,90.76
2023-11-21T23:21:19.312Z,91.75
2023-11-21T23:23:51.788Z,91.70
2023-11-21T23:26:19.428Z,91.93
2023-11-21T23:28:46.681Z,90.78
2023-11-21T23:31:13.853Z,92.64
2023-11-21T23:33:41.462Z,91.76
2023-11-21T23:36:09.270Z,90.91
2023-11-21T23:38:36.919Z,91.27
2023-11-21T23:41:06.357Z,91.69
2023-11-21T23:43:33.692Z,91.39
2023-11-21T23:46:03.452Z,91.59
2023-11-21T23:48:30.682Z,90.87
2023-11-21T23:51:00.115Z,92.03
2023-11-21T23:53:29.691Z,92.02
2023-11-21T23:55:57.574Z,90.61
2023-11-21T23:58:24.876Z,90.72
